createdAt,value
2023-05-11T00:02:55.445Z,12.14
2023-05-11T00:06:01.405Z,12.14
2023-05-11T00:09:08.027Z,12.19
2023-05-11T00:12:14.466Z,12.18
2023-05-11T00:15:20.035Z,12.18
2023-05-11T00:18:26.087Z,12.26
2023-05-11T00:21:32.587Z,12.27
2023-05-11T00:24:39.747Z,12.20
2023-05-11T00:27:46.547Z,12.24
2023-05-11T00:30:59.333Z,12.21
2023-05-11T00:34:04.845Z,12.20
2023-05-11T00:37:11.202Z,12.13
2023-05-11T00:40:17.112Z,12.06
2023-05-11T00:43:22.834Z,12.13
2023-05-11T00:46:28.873Z,12.17
2023-05-11T00:49:34.349Z,12.07
2023-05-11T00:52:42.118Z,12.06
2023-05-11T00:55:47.727Z,12.04
2023-05-11T00:58:53.588Z,12.05
2023-05-11T01:01:59.951Z,11.98
2023-05-11T01:05:06.515Z,12.14
2023-05-11T01:08:19.517Z,12.17
2023-05-11T01:11:34.551Z,12.10
2023-05-11T01:14:48.633Z,12.16
2023-05-11T01:18:17.160Z,12.14
2023-05-11T01:21:22.909Z,12.11
2023-05-11T01:24:31.381Z,12.18
2023-05-11T01:28:11.957Z,12.06
2023-05-11T01:31:19.721Z,12.09
2023-05-11T01:34:30.969Z,12.04
2023-05-11T01:37:39.214Z,12.11
2023-05-11T01:40:51.848Z,12.15
2023-05-11T01:44:01.129Z,12.15
2023-05-11T01:47:08.928Z,12.14
2023-05-11T01:50:18.001Z,12.09
2023-05-11T01:53:24.704Z,12.09
2023-05-11T01:56:31.941Z,12.14
2023-05-11T01:59:40.903Z,12.10
2023-05-11T02:02:49.702Z,12.10
2023-05-11T02:05:58.243Z,12.02
2023-05-11T02:09:05.819Z,12.00
2023-05-11T02:12:14.311Z,11.99
2023-05-11T02:15:22.010Z,11.90
2023-05-11T02:18:29.333Z,11.96
2023-05-11T02:21:38.723Z,11.87
2023-05-11T02:24:44.942Z,11.90
2023-05-11T02:27:50.396Z,11.97
2023-05-11T02:31:01.075Z,11.85
2023-05-11T02:34:21.407Z,12.00
2023-05-11T02:37:28.169Z,11.94
2023-05-11T02:40:51.154Z,11.84
2023-05-11T02:44:04.250Z,11.80
2023-05-11T02:47:16.170Z,11.89
2023-05-11T02:50:24.704Z,11.97
2023-05-11T02:53:33.601Z,11.99
2023-05-11T02:56:39.845Z,11.83
2023-05-11T02:59:46.857Z,11.82
2023-05-11T03:02:53.208Z,11.83
2023-05-11T03:06:01.151Z,11.94
2023-05-11T03:09:09.324Z,11.94
2023-05-11T03:12:21.851Z,11.95
2023-05-11T03:15:28.898Z,11.82
2023-05-11T03:18:37.531Z,11.79
2023-05-11T03:21:43.630Z,11.85
2023-05-11T03:24:50.719Z,11.74
2023-05-11T03:27:59.478Z,11.77
2023-05-11T03:31:07.420Z,11.68
2023-05-11T03:34:13.659Z,11.75
2023-05-11T03:37:21.861Z,11.70
2023-05-11T03:40:33.588Z,11.75
2023-05-11T03:43:41.557Z,11.63
2023-05-11T03:46:48.854Z,11.57
2023-05-11T03:49:56.931Z,11.73
2023-05-11T03:53:04.748Z,11.78
2023-05-11T03:56:10.945Z,11.82
2023-05-11T03:59:17.147Z,11.83
2023-05-11T04:02:24.876Z,11.81
2023-05-11T04:05:30.622Z,11.85
2023-05-11T04:08:37.471Z,11.81
2023-05-11T04:11:42.818Z,11.85
2023-05-11T04:14:48.433Z,11.84
2023-05-11T04:17:53.694Z,11.82
2023-05-11T04:21:00.114Z,11.79
2023-05-11T04:24:06.624Z,11.84
2023-05-11T04:27:12.202Z,11.86
2023-05-11T04:30:19.741Z,11.77
2023-05-11T04:33:25.637Z,11.90
2023-05-11T04:36:33.343Z,11.76
2023-05-11T04:39:39.478Z,11.78
2023-05-11T04:42:44.772Z,11.89
2023-05-11T04:45:55.145Z,11.98
2023-05-11T04:49:06.346Z,11.73
2023-05-11T04:52:14.728Z,11.80
2023-05-11T04:55:23.290Z,11.66
2023-05-11T04:58:30.060Z,11.77
2023-05-11T05:01:36.140Z,11.99
2023-05-11T05:04:41.900Z,12.06
2023-05-11T05:07:47.427Z,11.94
2023-05-11T05:10:52.969Z,12.06
2023-05-11T05:13:58.587Z,12.13
2023-05-11T05:17:03.855Z,12.19
2023-05-11T05:20:10.020Z,12.22
2023-05-11T05:23:15.142Z,12.37
2023-05-11T05:26:20.404Z,12.35
2023-05-11T05:29:27.164Z,12.28
2023-05-11T05:32:33.106Z,12.24
2023-05-11T05:35:38.592Z,12.20
2023-05-11T05:38:43.818Z,12.31
2023-05-11T05:41:50.380Z,12.44
2023-05-11T05:44:56.796Z,12.46
2023-05-11T05:48:02.466Z,12.52
2023-05-11T05:51:08.566Z,12.45
2023-05-11T05:54:14.862Z,12.57
2023-05-11T05:57:21.313Z,12.52
2023-05-11T06:00:26.928Z,12.51
2023-05-11T06:03:40.570Z,12.53
2023-05-11T06:06:46.789Z,12.57
2023-05-11T06:09:52.201Z,12.57
2023-05-11T06:12:57.834Z,12.43
2023-05-11T06:16:06.120Z,12.45
2023-05-11T06:19:13.679Z,12.51
2023-05-11T06:22:19.287Z,12.50
2023-05-11T06:25:28.142Z,12.53
2023-05-11T06:28:34.792Z,12.41
2023-05-11T06:31:44.258Z,12.59
2023-05-11T06:34:49.752Z,12.46
2023-05-11T06:37:55.613Z,12.46
2023-05-11T06:41:01.806Z,12.47
2023-05-11T06:44:07.093Z,12.44
2023-05-11T06:47:16.270Z,12.48
2023-05-11T06:50:22.215Z,12.46
2023-05-11T06:53:28.854Z,12.45
2023-05-11T06:56:37.380Z,12.54
2023-05-11T06:59:42.726Z,12.66
2023-05-11T07:02:48.254Z,12.67
2023-05-11T07:05:54.583Z,12.61
2023-05-11T07:08:59.956Z,12.70
2023-05-11T07:12:05.718Z,12.42
2023-05-11T07:15:11.379Z,12.42
2023-05-11T07:18:17.557Z,12.51
2023-05-11T07:21:23.422Z,12.67
2023-05-11T07:24:29.035Z,12.66
2023-05-11T07:27:35.016Z,12.68
2023-05-11T07:30:40.746Z,12.71
2023-05-11T07:33:45.900Z,12.76
2023-05-11T07:36:51.786Z,12.72
2023-05-11T07:39:57.192Z,12.63
2023-05-11T07:43:02.475Z,12.58
2023-05-11T07:46:07.992Z,12.65
2023-05-11T07:49:19.005Z,12.66
2023-05-11T07:52:31.150Z,12.40
2023-05-11T07:55:36.901Z,12.22
2023-05-11T07:58:42.548Z,12.42
2023-05-11T08:01:48.021Z,12.58
2023-05-11T08:04:53.764Z,12.35
2023-05-11T08:07:59.439Z,12.56
2023-05-11T08:11:06.153Z,12.56
2023-05-11T08:14:11.553Z,12.62
2023-05-11T08:17:17.006Z,12.63
2023-05-11T08:20:22.419Z,12.62
2023-05-11T08:23:27.852Z,12.63
2023-05-11T08:26:33.742Z,12.62
2023-05-11T08:29:39.167Z,12.67
2023-05-11T08:35:53.804Z,12.57
2023-05-11T08:38:59.906Z,12.46
2023-05-11T08:42:07.381Z,12.42
2023-05-11T08:45:13.332Z,12.63
2023-05-11T08:48:21.209Z,12.66
2023-05-11T08:51:28.505Z,12.66
2023-05-11T08:54:34.071Z,12.82
2023-05-11T08:57:41.656Z,12.75
2023-05-11T09:00:51.779Z,12.81
2023-05-11T09:03:58.566Z,12.76
2023-05-11T09:07:05.152Z,12.75
2023-05-11T09:10:12.995Z,12.78
2023-05-11T09:13:19.463Z,12.76
2023-05-11T09:16:36.132Z,12.90
2023-05-11T09:19:59.586Z,12.79
2023-05-11T09:23:04.996Z,12.69
2023-05-11T09:26:15.504Z,12.60
2023-05-11T09:29:21.543Z,12.58
2023-05-11T09:32:26.858Z,12.81
2023-05-11T09:35:34.670Z,12.67
2023-05-11T09:38:40.622Z,12.72
2023-05-11T09:41:46.363Z,12.89
2023-05-11T09:44:53.124Z,12.86
2023-05-11T09:47:58.930Z,12.84
2023-05-11T09:51:07.030Z,12.91
2023-05-11T09:54:19.206Z,12.89
2023-05-11T09:57:29.986Z,12.89
2023-05-11T10:00:35.675Z,12.98
2023-05-11T10:04:08.902Z,13.16
2023-05-11T10:07:30.707Z,13.12
2023-05-11T10:10:36.325Z,13.14
2023-05-11T10:13:45.082Z,13.02
2023-05-11T10:16:51.706Z,13.10
2023-05-11T10:19:59.001Z,13.02
2023-05-11T10:23:06.373Z,12.98
2023-05-11T10:26:12.212Z,12.90
2023-05-11T10:29:19.836Z,13.10
2023-05-11T10:32:26.329Z,13.16
2023-05-11T10:35:32.029Z,13.09
2023-05-11T10:38:37.939Z,13.02
2023-05-11T10:42:15.533Z,13.04
2023-05-11T10:45:32.667Z,13.10
2023-05-11T10:48:59.134Z,13.09
2023-05-11T10:52:24.354Z,13.13
2023-05-11T10:55:38.692Z,13.21
2023-05-11T10:59:11.736Z,13.24
2023-05-11T11:02:18.935Z,13.28
2023-05-11T11:05:35.385Z,13.14
2023-05-11T11:08:58.542Z,13.22
2023-05-11T11:12:10.339Z,13.00
2023-05-11T11:15:16.416Z,13.12
2023-05-11T11:18:30.978Z,13.12
2023-05-11T11:21:41.985Z,13.29
2023-05-11T11:24:47.505Z,13.29
2023-05-11T11:27:53.394Z,13.28
2023-05-11T11:31:34.639Z,13.26
2023-05-11T11:34:40.234Z,13.27
2023-05-11T11:38:03.930Z,13.45
2023-05-11T11:41:09.752Z,13.46
2023-05-11T11:44:22.315Z,13.39
2023-05-11T11:47:27.926Z,13.33
2023-05-11T11:50:34.320Z,13.43
2023-05-11T11:53:41.267Z,13.39
2023-05-11T11:56:47.072Z,13.57
2023-05-11T11:59:53.610Z,13.45
2023-05-11T12:02:59.952Z,13.50
2023-05-11T12:06:08.241Z,13.48
2023-05-11T12:09:18.704Z,13.39
2023-05-11T12:12:24.590Z,13.64
2023-05-11T12:15:35.060Z,13.56
2023-05-11T12:18:42.284Z,13.57
2023-05-11T12:21:47.965Z,13.64
2023-05-11T12:24:59.649Z,13.70
2023-05-11T12:28:06.177Z,13.67
2023-05-11T12:31:11.529Z,13.66
2023-05-11T12:34:19.106Z,13.62
2023-05-11T12:37:25.014Z,13.57
2023-05-11T12:40:31.668Z,13.75
2023-05-11T12:43:38.069Z,13.76
2023-05-11T12:46:48.784Z,13.81
2023-05-11T12:49:54.374Z,13.67
2023-05-11T12:53:20.163Z,13.75
2023-05-11T12:56:25.590Z,13.81
2023-05-11T12:59:35.716Z,13.78
2023-05-11T13:02:55.160Z,13.88
2023-05-11T13:06:19.505Z,13.90
2023-05-11T13:09:26.113Z,13.95
2023-05-11T13:12:33.105Z,13.99
2023-05-11T13:15:52.228Z,13.98
2023-05-11T13:19:08.908Z,14.13
2023-05-11T13:22:14.420Z,14.10
2023-05-11T13:25:21.695Z,14.08
2023-05-11T13:28:27.993Z,14.05
2023-05-11T13:31:33.684Z,14.15
2023-05-11T13:34:39.255Z,14.21
2023-05-11T13:37:44.812Z,14.21
2023-05-11T13:40:50.322Z,14.32
2023-05-11T13:43:56.416Z,14.20
2023-05-11T13:47:02.091Z,14.24
2023-05-11T13:50:09.455Z,14.24
2023-05-11T13:53:14.992Z,14.21
2023-05-11T13:56:21.800Z,14.26
2023-05-11T13:59:27.219Z,14.30
2023-05-11T14:02:33.155Z,14.23
2023-05-11T14:05:39.423Z,14.19
2023-05-11T14:08:45.430Z,14.13
2023-05-11T14:11:51.451Z,14.23
2023-05-11T14:14:57.105Z,14.24
2023-05-11T14:18:05.648Z,14.10
2023-05-11T14:21:12.245Z,14.18
2023-05-11T14:24:18.078Z,14.02
2023-05-11T14:27:24.152Z,14.06
2023-05-11T14:30:29.816Z,14.08
2023-05-11T14:33:35.478Z,14.06
2023-05-11T14:36:41.132Z,14.06
2023-05-11T14:39:46.557Z,14.10
2023-05-11T14:42:51.816Z,13.97
2023-05-11T14:45:57.693Z,14.07
2023-05-11T14:49:03.464Z,14.16
2023-05-11T14:52:10.835Z,14.08
2023-05-11T14:55:17.193Z,14.06
2023-05-11T14:58:23.258Z,13.92
2023-05-11T15:01:28.653Z,14.01
2023-05-11T15:04:34.621Z,13.93
2023-05-11T15:07:39.904Z,13.91
2023-05-11T15:10:45.490Z,13.99
2023-05-11T15:13:51.004Z,13.90
2023-05-11T15:16:59.197Z,14.04
2023-05-11T15:20:05.371Z,13.89
2023-05-11T15:23:11.894Z,14.06
2023-05-11T15:26:18.754Z,14.01
2023-05-11T15:29:25.654Z,13.92
2023-05-11T15:32:31.589Z,14.07
2023-05-11T15:35:38.331Z,14.13
2023-05-11T15:38:44.216Z,13.99
2023-05-11T15:41:50.071Z,14.13
2023-05-11T15:44:55.538Z,14.13
2023-05-11T15:48:01.142Z,14.09
2023-05-11T15:51:06.221Z,14.08
2023-05-11T15:54:11.638Z,13.95
2023-05-11T15:57:17.447Z,14.01
2023-05-11T16:00:23.310Z,13.96
2023-05-11T16:03:29.219Z,13.85
2023-05-11T16:06:35.504Z,13.86
2023-05-11T16:09:41.311Z,13.87
2023-05-11T16:12:47.149Z,13.89
2023-05-11T16:15:52.907Z,13.85
2023-05-11T16:18:59.409Z,13.79
2023-05-11T16:22:04.831Z,13.84
2023-05-11T16:25:10.775Z,13.86
2023-05-11T16:28:16.452Z,13.84
2023-05-11T16:31:22.991Z,13.86
2023-05-11T16:34:29.073Z,13.81
2023-05-11T16:37:34.866Z,13.90
2023-05-11T16:40:40.394Z,13.81
2023-05-11T16:43:46.656Z,13.89
2023-05-11T16:46:51.917Z,13.85
2023-05-11T16:49:57.545Z,13.89
2023-05-11T16:53:03.710Z,13.88
2023-05-11T16:56:08.909Z,13.85
2023-05-11T16:59:14.232Z,13.74
2023-05-11T17:02:20.275Z,13.78
2023-05-11T17:05:25.522Z,13.70
2023-05-11T17:08:31.239Z,13.74
2023-05-11T17:11:36.914Z,13.61
2023-05-11T17:14:42.052Z,13.46
2023-05-11T17:17:47.649Z,13.63
2023-05-11T17:20:54.539Z,13.49
2023-05-11T17:23:59.940Z,13.58
2023-05-11T17:27:05.982Z,13.47
2023-05-11T17:30:11.763Z,13.31
2023-05-11T17:33:17.593Z,13.46
2023-05-11T17:36:22.873Z,13.27
2023-05-11T17:39:28.486Z,13.28
2023-05-11T17:42:35.263Z,13.17
2023-05-11T17:45:40.546Z,13.06
2023-05-11T17:48:46.022Z,13.01
2023-05-11T17:51:51.534Z,13.01
2023-05-11T17:54:57.362Z,12.96
2023-05-11T17:58:03.034Z,12.94
2023-05-11T18:01:09.439Z,12.84
2023-05-11T18:04:15.472Z,12.98
2023-05-11T18:07:21.264Z,12.86
2023-05-11T18:10:26.434Z,12.98
2023-05-11T18:13:32.112Z,12.96
2023-05-11T18:16:38.080Z,12.86
2023-05-11T18:19:43.555Z,12.82
2023-05-11T18:22:49.141Z,12.79
2023-05-11T18:25:54.446Z,12.80
2023-05-11T18:28:59.922Z,12.79
2023-05-11T18:32:05.717Z,12.74
2023-05-11T18:35:11.053Z,12.73
2023-05-11T18:38:16.852Z,12.61
2023-05-11T18:41:22.878Z,12.47
2023-05-11T18:44:28.722Z,12.29
2023-05-11T18:47:36.132Z,12.29
2023-05-11T18:50:57.581Z,12.31
2023-05-11T18:54:03.189Z,12.24
2023-05-11T18:57:09.841Z,12.20
2023-05-11T19:00:16.302Z,12.27
2023-05-11T19:03:22.561Z,12.22
2023-05-11T19:06:28.522Z,12.18
2023-05-11T19:09:35.163Z,12.15
2023-05-11T19:12:40.433Z,11.97
2023-05-11T19:15:45.850Z,12.06
2023-05-11T19:18:51.103Z,11.98
2023-05-11T19:21:56.537Z,12.06
2023-05-11T19:25:01.691Z,12.02
2023-05-11T19:28:12.558Z,12.09
2023-05-11T19:31:20.233Z,12.02
2023-05-11T19:34:26.291Z,12.23
2023-05-11T19:37:33.256Z,12.25
2023-05-11T19:40:46.086Z,12.42
2023-05-11T19:43:53.094Z,12.51
2023-05-11T19:46:59.852Z,12.52
2023-05-11T19:50:09.551Z,12.36
2023-05-11T19:53:15.429Z,12.53
2023-05-11T19:56:21.883Z,12.52
2023-05-11T19:59:33.272Z,12.55
2023-05-11T20:02:38.664Z,12.49
2023-05-11T20:05:44.648Z,12.47
2023-05-11T20:08:51.765Z,12.41
2023-05-11T20:11:57.655Z,12.52
2023-05-11T20:15:03.389Z,12.56
2023-05-11T20:18:09.649Z,12.58
2023-05-11T20:21:15.888Z,12.54
2023-05-11T20:24:21.380Z,12.60
2023-05-11T20:27:26.959Z,12.50
2023-05-11T20:30:33.280Z,12.60
2023-05-11T20:36:49.013Z,12.53
2023-05-11T20:39:54.521Z,12.48
2023-05-11T20:42:59.735Z,12.28
2023-05-11T20:46:05.752Z,12.51
2023-05-11T20:49:22.246Z,12.39
2023-05-11T20:52:34.112Z,12.45
2023-05-11T20:55:39.698Z,12.51
2023-05-11T20:58:47.605Z,12.51
2023-05-11T21:01:53.613Z,12.46
2023-05-11T21:05:02.655Z,12.47
2023-05-11T21:08:08.283Z,12.52
2023-05-11T21:11:13.722Z,12.42
2023-05-11T21:14:19.324Z,12.48
2023-05-11T21:17:25.005Z,12.43
2023-05-11T21:20:30.796Z,12.43
2023-05-11T21:23:36.456Z,12.39
2023-05-11T21:26:42.535Z,12.44
2023-05-11T21:29:48.470Z,12.45
2023-05-11T21:32:54.107Z,12.45
2023-05-11T21:35:59.701Z,12.33
2023-05-11T21:39:05.351Z,12.52
2023-05-11T21:42:10.886Z,12.44
2023-05-11T21:45:16.392Z,12.57
2023-05-11T21:48:22.219Z,12.47
2023-05-11T21:51:28.136Z,12.53
2023-05-11T21:54:34.186Z,12.58
2023-05-11T21:57:40.116Z,12.63
2023-05-11T22:00:46.574Z,12.59
2023-05-11T22:03:52.314Z,12.59
2023-05-11T22:07:01.747Z,12.63
2023-05-11T22:10:07.902Z,12.63
2023-05-11T22:13:13.442Z,12.63
2023-05-11T22:16:19.365Z,12.65
2023-05-11T22:19:24.868Z,12.67
2023-05-11T22:22:29.910Z,12.66
2023-05-11T22:25:35.402Z,12.61
2023-05-11T22:28:40.655Z,12.64
2023-05-11T22:31:46.441Z,12.61
2023-05-11T22:35:01.710Z,12.68
2023-05-11T22:38:07.062Z,12.68
2023-05-11T22:41:12.400Z,12.57
2023-05-11T22:44:18.092Z,12.58
2023-05-11T22:47:23.902Z,12.55
2023-05-11T22:50:30.218Z,12.51
2023-05-11T22:53:36.071Z,12.54
2023-05-11T22:56:41.364Z,12.64
2023-05-11T22:59:47.015Z,12.66
2023-05-11T23:02:52.104Z,12.63
2023-05-11T23:05:57.954Z,12.66
2023-05-11T23:09:05.316Z,12.64
2023-05-11T23:12:11.105Z,12.72
2023-05-11T23:15:16.352Z,12.59
2023-05-11T23:18:22.561Z,12.65
2023-05-11T23:21:28.406Z,12.65
2023-05-11T23:24:33.651Z,12.63
2023-05-11T23:27:39.141Z,12.67
2023-05-11T23:30:46.448Z,12.66
2023-05-11T23:33:51.686Z,12.67
2023-05-11T23:36:56.928Z,12.63
2023-05-11T23:40:02.620Z,12.64
2023-05-11T23:43:09.054Z,12.62
2023-05-11T23:46:14.879Z,12.64
2023-05-11T23:49:20.926Z,12.65
2023-05-11T23:52:26.115Z,12.63
2023-05-11T23:55:31.402Z,12.66
2023-05-11T23:58:36.656Z,12.63
